sensor_id;sensor_type;location;lat;lon;timestamp;temperature;humidity
25410;DHT22;13339;50.840;4.346;2023-06-14T00:01:32;24.30;91.70
25410;DHT22;13339;50.840;4.346;2023-06-14T00:04:00;24.00;92.00
25410;DHT22;13339;50.840;4.346;2023-06-14T00:06:28;23.90;92.30
25410;DHT22;13339;50.840;4.346;2023-06-14T00:08:53;23.80;92.30
25410;DHT22;13339;50.840;4.346;2023-06-14T00:11:20;23.90;92.40
25410;DHT22;13339;50.840;4.346;2023-06-14T00:13:46;23.90;92.20
25410;DHT22;13339;50.840;4.346;2023-06-14T00:16:12;23.90;92.30
25410;DHT22;13339;50.840;4.346;2023-06-14T00:18:38;23.80;92.50
25410;DHT22;13339;50.840;4.346;2023-06-14T00:21:04;23.80;92.60
25410;DHT22;13339;50.840;4.346;2023-06-14T00:23:30;23.70;92.70
25410;DHT22;13339;50.840;4.346;2023-06-14T00:25:55;23.70;92.70
25410;DHT22;13339;50.840;4.346;2023-06-14T00:28:21;23.60;92.80
25410;DHT22;13339;50.840;4.346;2023-06-14T00:30:47;23.50;93.00
25410;DHT22;13339;50.840;4.346;2023-06-14T00:33:13;23.50;93.00
25410;DHT22;13339;50.840;4.346;2023-06-14T00:35:38;23.60;93.00
25410;DHT22;13339;50.840;4.346;2023-06-14T00:38:04;23.70;92.80
25410;DHT22;13339;50.840;4.346;2023-06-14T00:40:29;23.60;92.90
25410;DHT22;13339;50.840;4.346;2023-06-14T00:42:55;23.70;92.80
25410;DHT22;13339;50.840;4.346;2023-06-14T00:45:21;23.60;92.90
25410;DHT22;13339;50.840;4.346;2023-06-14T00:47:47;23.40;93.20
25410;DHT22;13339;50.840;4.346;2023-06-14T00:50:13;23.40;93.30
25410;DHT22;13339;50.840;4.346;2023-06-14T00:52:39;23.40;93.40
25410;DHT22;13339;50.840;4.346;2023-06-14T00:55:06;23.50;93.30
25410;DHT22;13339;50.840;4.346;2023-06-14T00:57:32;23.50;93.20
25410;DHT22;13339;50.840;4.346;2023-06-14T00:59:57;23.50;93.10
25410;DHT22;13339;50.840;4.346;2023-06-14T01:02:23;23.40;93.20
25410;DHT22;13339;50.840;4.346;2023-06-14T01:04:50;23.40;93.40
25410;DHT22;13339;50.840;4.346;2023-06-14T01:10:40;23.40;93.30
25410;DHT22;13339;50.840;4.346;2023-06-14T01:13:23;23.50;93.20
25410;DHT22;13339;50.840;4.346;2023-06-14T01:15:52;23.40;93.20
25410;DHT22;13339;50.840;4.346;2023-06-14T01:18:19;23.40;93.30
25410;DHT22;13339;50.840;4.346;2023-06-14T01:20:46;23.40;93.40
25410;DHT22;13339;50.840;4.346;2023-06-14T01:23:19;23.40;93.50
25410;DHT22;13339;50.840;4.346;2023-06-14T01:25:45;23.40;93.50
25410;DHT22;13339;50.840;4.346;2023-06-14T01:28:13;23.20;93.70
25410;DHT22;13339;50.840;4.346;2023-06-14T01:30:45;23.20;93.90
25410;DHT22;13339;50.840;4.346;2023-06-14T01:33:16;23.10;94.00
25410;DHT22;13339;50.840;4.346;2023-06-14T01:35:44;23.00;94.20
25410;DHT22;13339;50.840;4.346;2023-06-14T01:38:10;23.00;94.40
25410;DHT22;13339;50.840;4.346;2023-06-14T01:40:38;22.90;94.70
25410;DHT22;13339;50.840;4.346;2023-06-14T01:43:05;22.80;94.80
25410;DHT22;13339;50.840;4.346;2023-06-14T01:45:33;22.60;95.10
25410;DHT22;13339;50.840;4.346;2023-06-14T01:47:59;22.60;95.20
25410;DHT22;13339;50.840;4.346;2023-06-14T01:50:31;22.60;95.20
25410;DHT22;13339;50.840;4.346;2023-06-14T01:52:57;22.60;95.30
25410;DHT22;13339;50.840;4.346;2023-06-14T01:55:23;22.60;95.20
25410;DHT22;13339;50.840;4.346;2023-06-14T01:57:53;22.50;95.50
25410;DHT22;13339;50.840;4.346;2023-06-14T02:00:20;22.30;95.70
25410;DHT22;13339;50.840;4.346;2023-06-14T02:02:47;22.40;96.10
25410;DHT22;13339;50.840;4.346;2023-06-14T02:05:12;22.40;95.80
25410;DHT22;13339;50.840;4.346;2023-06-14T02:07:38;22.40;95.90
25410;DHT22;13339;50.840;4.346;2023-06-14T02:10:05;22.40;95.90
25410;DHT22;13339;50.840;4.346;2023-06-14T02:12:30;22.40;96.10
25410;DHT22;13339;50.840;4.346;2023-06-14T02:14:56;22.30;96.30
25410;DHT22;13339;50.840;4.346;2023-06-14T02:17:22;22.10;96.40
25410;DHT22;13339;50.840;4.346;2023-06-14T02:19:48;22.10;96.50
25410;DHT22;13339;50.840;4.346;2023-06-14T02:22:14;22.20;96.60
25410;DHT22;13339;50.840;4.346;2023-06-14T02:24:41;22.10;96.60
25410;DHT22;13339;50.840;4.346;2023-06-14T02:27:07;22.00;96.90
25410;DHT22;13339;50.840;4.346;2023-06-14T02:29:33;22.00;97.00
25410;DHT22;13339;50.840;4.346;2023-06-14T02:31:59;21.90;97.10
25410;DHT22;13339;50.840;4.346;2023-06-14T02:34:25;22.00;97.10
25410;DHT22;13339;50.840;4.346;2023-06-14T02:36:50;21.90;97.10
25410;DHT22;13339;50.840;4.346;2023-06-14T02:39:18;21.70;97.60
25410;DHT22;13339;50.840;4.346;2023-06-14T02:41:46;21.70;97.70
25410;DHT22;13339;50.840;4.346;2023-06-14T02:44:13;21.70;97.70
25410;DHT22;13339;50.840;4.346;2023-06-14T02:46:39;21.80;97.60
25410;DHT22;13339;50.840;4.346;2023-06-14T02:49:05;21.80;97.60
25410;DHT22;13339;50.840;4.346;2023-06-14T02:51:30;21.90;97.60
25410;DHT22;13339;50.840;4.346;2023-06-14T02:53:56;21.80;97.70
25410;DHT22;13339;50.840;4.346;2023-06-14T02:56:22;21.80;97.80
25410;DHT22;13339;50.840;4.346;2023-06-14T02:58:48;21.70;97.90
25410;DHT22;13339;50.840;4.346;2023-06-14T03:01:14;21.70;98.00
25410;DHT22;13339;50.840;4.346;2023-06-14T03:03:40;21.70;98.00
25410;DHT22;13339;50.840;4.346;2023-06-14T03:06:05;21.80;98.00
25410;DHT22;13339;50.840;4.346;2023-06-14T03:08:31;21.70;98.10
25410;DHT22;13339;50.840;4.346;2023-06-14T03:11:03;21.60;98.40
25410;DHT22;13339;50.840;4.346;2023-06-14T03:13:30;21.50;98.60
25410;DHT22;13339;50.840;4.346;2023-06-14T03:15:57;21.30;98.80
25410;DHT22;13339;50.840;4.346;2023-06-14T03:18:23;21.20;99.20
25410;DHT22;13339;50.840;4.346;2023-06-14T03:20:49;21.20;99.50
25410;DHT22;13339;50.840;4.346;2023-06-14T03:23:16;21.20;99.50
25410;DHT22;13339;50.840;4.346;2023-06-14T03:25:42;21.30;99.40
25410;DHT22;13339;50.840;4.346;2023-06-14T03:28:08;21.40;99.50
25410;DHT22;13339;50.840;4.346;2023-06-14T03:30:33;21.30;99.50
25410;DHT22;13339;50.840;4.346;2023-06-14T03:32:59;21.30;99.80
25410;DHT22;13339;50.840;4.346;2023-06-14T03:35:28;21.30;99.80
25410;DHT22;13339;50.840;4.346;2023-06-14T03:37:54;20.80;99.90
25410;DHT22;13339;50.840;4.346;2023-06-14T03:40:21;20.80;99.90
25410;DHT22;13339;50.840;4.346;2023-06-14T03:42:47;20.80;99.90
25410;DHT22;13339;50.840;4.346;2023-06-14T03:45:12;20.90;99.90
25410;DHT22;13339;50.840;4.346;2023-06-14T03:47:38;20.90;99.90
25410;DHT22;13339;50.840;4.346;2023-06-14T03:50:04;20.90;99.90
25410;DHT22;13339;50.840;4.346;2023-06-14T03:52:31;21.00;99.90
25410;DHT22;13339;50.840;4.346;2023-06-14T03:54:58;21.00;99.90
25410;DHT22;13339;50.840;4.346;2023-06-14T03:57:25;21.10;99.90
25410;DHT22;13339;50.840;4.346;2023-06-14T03:59:51;21.10;99.90
25410;DHT22;13339;50.840;4.346;2023-06-14T04:02:17;21.00;99.90
25410;DHT22;13339;50.840;4.346;2023-06-14T04:04:44;21.10;99.90
25410;DHT22;13339;50.840;4.346;2023-06-14T04:07:13;21.00;99.90
25410;DHT22;13339;50.840;4.346;2023-06-14T04:09:39;20.90;99.90
25410;DHT22;13339;50.840;4.346;2023-06-14T04:12:06;20.80;99.90
25410;DHT22;13339;50.840;4.346;2023-06-14T04:14:31;20.70;99.90
25410;DHT22;13339;50.840;4.346;2023-06-14T04:17:00;20.70;99.90
25410;DHT22;13339;50.840;4.346;2023-06-14T04:19:26;20.80;99.90
25410;DHT22;13339;50.840;4.346;2023-06-14T04:21:52;20.80;99.90
25410;DHT22;13339;50.840;4.346;2023-06-14T04:24:18;20.80;99.90
25410;DHT22;13339;50.840;4.346;2023-06-14T04:26:44;20.80;99.90
25410;DHT22;13339;50.840;4.346;2023-06-14T04:29:19;20.80;99.90
25410;DHT22;13339;50.840;4.346;2023-06-14T04:31:45;20.80;99.90
25410;DHT22;13339;50.840;4.346;2023-06-14T04:34:12;20.70;99.90
25410;DHT22;13339;50.840;4.346;2023-06-14T04:36:44;20.90;99.90
25410;DHT22;13339;50.840;4.346;2023-06-14T04:39:22;20.90;99.90
25410;DHT22;13339;50.840;4.346;2023-06-14T04:41:48;20.90;99.90
25410;DHT22;13339;50.840;4.346;2023-06-14T04:44:18;21.10;99.90
25410;DHT22;13339;50.840;4.346;2023-06-14T04:46:45;21.00;99.90
25410;DHT22;13339;50.840;4.346;2023-06-14T04:49:14;21.10;99.90
25410;DHT22;13339;50.840;4.346;2023-06-14T04:51:41;21.10;99.90
25410;DHT22;13339;50.840;4.346;2023-06-14T04:54:08;21.10;99.90
25410;DHT22;13339;50.840;4.346;2023-06-14T04:56:36;21.10;99.90
25410;DHT22;13339;50.840;4.346;2023-06-14T04:59:03;21.20;99.90
25410;DHT22;13339;50.840;4.346;2023-06-14T05:01:32;21.10;99.90
25410;DHT22;13339;50.840;4.346;2023-06-14T05:03:58;21.10;99.90
25410;DHT22;13339;50.840;4.346;2023-06-14T05:06:24;21.20;99.90
25410;DHT22;13339;50.840;4.346;2023-06-14T05:08:50;21.20;99.90
25410;DHT22;13339;50.840;4.346;2023-06-14T05:11:16;21.10;99.90
25410;DHT22;13339;50.840;4.346;2023-06-14T05:13:42;21.20;99.90
25410;DHT22;13339;50.840;4.346;2023-06-14T05:16:10;21.10;99.90
25410;DHT22;13339;50.840;4.346;2023-06-14T05:18:36;21.20;99.90
25410;DHT22;13339;50.840;4.346;2023-06-14T05:21:02;21.30;99.90
25410;DHT22;13339;50.840;4.346;2023-06-14T05:23:29;21.30;99.90
25410;DHT22;13339;50.840;4.346;2023-06-14T05:25:55;21.40;99.90
25410;DHT22;13339;50.840;4.346;2023-06-14T05:28:22;21.40;99.90
25410;DHT22;13339;50.840;4.346;2023-06-14T05:30:48;21.40;99.90
25410;DHT22;13339;50.840;4.346;2023-06-14T05:33:13;21.40;99.90
25410;DHT22;13339;50.840;4.346;2023-06-14T05:35:39;21.50;99.90
25410;DHT22;13339;50.840;4.346;2023-06-14T05:38:04;21.50;99.90
25410;DHT22;13339;50.840;4.346;2023-06-14T05:40:31;21.50;99.90
25410;DHT22;13339;50.840;4.346;2023-06-14T05:42:56;21.50;99.90
25410;DHT22;13339;50.840;4.346;2023-06-14T05:45:22;21.60;99.90
25410;DHT22;13339;50.840;4.346;2023-06-14T05:47:48;21.70;99.90
25410;DHT22;13339;50.840;4.346;2023-06-14T05:50:13;21.60;99.90
25410;DHT22;13339;50.840;4.346;2023-06-14T05:52:39;21.70;99.90
25410;DHT22;13339;50.840;4.346;2023-06-14T05:55:05;21.80;99.90
25410;DHT22;13339;50.840;4.346;2023-06-14T05:57:31;21.90;99.90
25410;DHT22;13339;50.840;4.346;2023-06-14T05:59:56;22.00;99.90
25410;DHT22;13339;50.840;4.346;2023-06-14T06:02:22;21.80;99.90
25410;DHT22;13339;50.840;4.346;2023-06-14T06:04:48;21.70;99.90
25410;DHT22;13339;50.840;4.346;2023-06-14T06:07:13;21.70;99.90
25410;DHT22;13339;50.840;4.346;2023-06-14T06:09:39;21.80;99.90
25410;DHT22;13339;50.840;4.346;2023-06-14T06:12:06;21.90;99.90
25410;DHT22;13339;50.840;4.346;2023-06-14T06:14:32;21.90;99.90
25410;DHT22;13339;50.840;4.346;2023-06-14T06:16:58;22.10;99.90
25410;DHT22;13339;50.840;4.346;2023-06-14T06:19:24;22.30;99.90
25410;DHT22;13339;50.840;4.346;2023-06-14T06:21:49;22.30;99.90
25410;DHT22;13339;50.840;4.346;2023-06-14T06:24:15;22.40;99.90
25410;DHT22;13339;50.840;4.346;2023-06-14T06:26:41;22.50;99.90
25410;DHT22;13339;50.840;4.346;2023-06-14T06:29:06;22.40;99.90
25410;DHT22;13339;50.840;4.346;2023-06-14T06:31:32;22.40;99.90
25410;DHT22;13339;50.840;4.346;2023-06-14T06:33:57;22.40;99.90
25410;DHT22;13339;50.840;4.346;2023-06-14T06:36:24;22.50;99.90
25410;DHT22;13339;50.840;4.346;2023-06-14T06:38:49;22.40;99.90
25410;DHT22;13339;50.840;4.346;2023-06-14T06:41:15;22.40;99.90
25410;DHT22;13339;50.840;4.346;2023-06-14T06:43:41;22.40;99.90
25410;DHT22;13339;50.840;4.346;2023-06-14T06:46:07;22.60;99.90
25410;DHT22;13339;50.840;4.346;2023-06-14T06:48:32;22.70;99.70
25410;DHT22;13339;50.840;4.346;2023-06-14T06:50:58;22.70;99.70
25410;DHT22;13339;50.840;4.346;2023-06-14T06:53:23;22.60;99.90
25410;DHT22;13339;50.840;4.346;2023-06-14T06:55:49;22.70;99.90
25410;DHT22;13339;50.840;4.346;2023-06-14T06:58:14;22.80;99.40
25410;DHT22;13339;50.840;4.346;2023-06-14T07:00:40;23.10;99.60
25410;DHT22;13339;50.840;4.346;2023-06-14T07:03:06;23.10;99.30
25410;DHT22;13339;50.840;4.346;2023-06-14T07:05:32;23.30;99.10
25410;DHT22;13339;50.840;4.346;2023-06-14T07:07:58;23.30;98.60
25410;DHT22;13339;50.840;4.346;2023-06-14T07:10:23;23.50;98.80
25410;DHT22;13339;50.840;4.346;2023-06-14T07:12:50;23.50;98.50
25410;DHT22;13339;50.840;4.346;2023-06-14T07:15:16;23.50;98.20
25410;DHT22;13339;50.840;4.346;2023-06-14T07:17:41;23.60;98.00
25410;DHT22;13339;50.840;4.346;2023-06-14T07:20:08;23.70;97.60
25410;DHT22;13339;50.840;4.346;2023-06-14T07:22:39;23.90;97.80
25410;DHT22;13339;50.840;4.346;2023-06-14T07:25:07;23.90;97.80
25410;DHT22;13339;50.840;4.346;2023-06-14T07:27:33;24.00;97.60
25410;DHT22;13339;50.840;4.346;2023-06-14T07:29:59;24.00;97.60
25410;DHT22;13339;50.840;4.346;2023-06-14T07:32:25;24.20;97.50
25410;DHT22;13339;50.840;4.346;2023-06-14T07:34:50;24.10;97.10
25410;DHT22;13339;50.840;4.346;2023-06-14T07:37:16;24.30;97.00
25410;DHT22;13339;50.840;4.346;2023-06-14T07:39:41;24.50;96.70
25410;DHT22;13339;50.840;4.346;2023-06-14T07:42:07;25.40;96.20
25410;DHT22;13339;50.840;4.346;2023-06-14T07:44:33;27.30;95.00
25410;DHT22;13339;50.840;4.346;2023-06-14T07:46:58;27.80;93.00
25410;DHT22;13339;50.840;4.346;2023-06-14T07:49:25;27.90;92.50
25410;DHT22;13339;50.840;4.346;2023-06-14T07:51:51;29.50;91.90
25410;DHT22;13339;50.840;4.346;2023-06-14T07:54:16;30.40;90.40
25410;DHT22;13339;50.840;4.346;2023-06-14T07:56:42;32.30;89.40
25410;DHT22;13339;50.840;4.346;2023-06-14T07:59:08;33.00;85.20
25410;DHT22;13339;50.840;4.346;2023-06-14T08:01:34;33.60;84.30
25410;DHT22;13339;50.840;4.346;2023-06-14T08:04:00;34.80;82.90
25410;DHT22;13339;50.840;4.346;2023-06-14T08:06:26;35.80;80.30
25410;DHT22;13339;50.840;4.346;2023-06-14T08:08:52;36.40;78.50
25410;DHT22;13339;50.840;4.346;2023-06-14T08:11:17;35.60;78.30
25410;DHT22;13339;50.840;4.346;2023-06-14T08:13:43;34.30;79.90
25410;DHT22;13339;50.840;4.346;2023-06-14T08:16:08;32.20;82.60
25410;DHT22;13339;50.840;4.346;2023-06-14T08:18:34;32.60;83.20
25410;DHT22;13339;50.840;4.346;2023-06-14T08:21:00;32.70;82.10
25410;DHT22;13339;50.840;4.346;2023-06-14T08:23:25;31.60;83.60
25410;DHT22;13339;50.840;4.346;2023-06-14T08:25:51;31.10;83.70
25410;DHT22;13339;50.840;4.346;2023-06-14T08:28:18;30.10;84.90
25410;DHT22;13339;50.840;4.346;2023-06-14T08:30:43;29.60;85.70
25410;DHT22;13339;50.840;4.346;2023-06-14T08:33:09;29.40;86.20
25410;DHT22;13339;50.840;4.346;2023-06-14T08:35:34;28.50;87.90
25410;DHT22;13339;50.840;4.346;2023-06-14T08:38:03;27.90;88.60
25410;DHT22;13339;50.840;4.346;2023-06-14T08:40:30;28.00;89.40
25410;DHT22;13339;50.840;4.346;2023-06-14T08:42:56;27.80;89.60
25410;DHT22;13339;50.840;4.346;2023-06-14T08:45:22;27.50;90.20
25410;DHT22;13339;50.840;4.346;2023-06-14T08:47:49;27.20;90.70
25410;DHT22;13339;50.840;4.346;2023-06-14T08:50:22;27.20;90.80
25410;DHT22;13339;50.840;4.346;2023-06-14T08:52:53;26.60;91.30
25410;DHT22;13339;50.840;4.346;2023-06-14T08:55:19;26.40;91.60
25410;DHT22;13339;50.840;4.346;2023-06-14T08:57:46;26.50;91.80
25410;DHT22;13339;50.840;4.346;2023-06-14T09:00:13;26.40;92.00
25410;DHT22;13339;50.840;4.346;2023-06-14T09:02:40;26.30;91.80
25410;DHT22;13339;50.840;4.346;2023-06-14T09:05:11;26.10;92.40
25410;DHT22;13339;50.840;4.346;2023-06-14T09:07:41;26.30;92.70
25410;DHT22;13339;50.840;4.346;2023-06-14T09:10:11;26.50;92.60
25410;DHT22;13339;50.840;4.346;2023-06-14T09:12:37;26.50;93.10
25410;DHT22;13339;50.840;4.346;2023-06-14T09:15:04;26.40;93.30
25410;DHT22;13339;50.840;4.346;2023-06-14T09:17:41;26.40;93.60
25410;DHT22;13339;50.840;4.346;2023-06-14T09:20:07;26.30;93.80
25410;DHT22;13339;50.840;4.346;2023-06-14T09:22:39;26.10;94.10
25410;DHT22;13339;50.840;4.346;2023-06-14T09:25:05;26.10;94.50
25410;DHT22;13339;50.840;4.346;2023-06-14T09:27:31;26.30;94.20
25410;DHT22;13339;50.840;4.346;2023-06-14T09:29:57;26.40;93.40
25410;DHT22;13339;50.840;4.346;2023-06-14T09:32:23;26.50;93.20
25410;DHT22;13339;50.840;4.346;2023-06-14T09:34:49;26.40;92.50
25410;DHT22;13339;50.840;4.346;2023-06-14T09:37:30;26.40;92.70
25410;DHT22;13339;50.840;4.346;2023-06-14T09:39:57;26.50;92.50
25410;DHT22;13339;50.840;4.346;2023-06-14T09:42:23;26.60;92.90
25410;DHT22;13339;50.840;4.346;2023-06-14T09:44:52;26.80;92.70
25410;DHT22;13339;50.840;4.346;2023-06-14T09:47:18;26.90;93.00
25410;DHT22;13339;50.840;4.346;2023-06-14T09:49:44;26.90;92.90
25410;DHT22;13339;50.840;4.346;2023-06-14T09:52:13;27.10;92.50
25410;DHT22;13339;50.840;4.346;2023-06-14T09:54:44;27.40;92.10
25410;DHT22;13339;50.840;4.346;2023-06-14T09:57:13;27.40;91.90
25410;DHT22;13339;50.840;4.346;2023-06-14T09:59:43;27.50;92.00
25410;DHT22;13339;50.840;4.346;2023-06-14T10:02:24;27.50;91.80
25410;DHT22;13339;50.840;4.346;2023-06-14T10:04:56;27.50;91.20
25410;DHT22;13339;50.840;4.346;2023-06-14T10:07:24;27.20;91.10
25410;DHT22;13339;50.840;4.346;2023-06-14T10:09:53;26.80;92.20
25410;DHT22;13339;50.840;4.346;2023-06-14T10:12:19;26.60;92.10
25410;DHT22;13339;50.840;4.346;2023-06-14T10:14:51;26.50;92.40
25410;DHT22;13339;50.840;4.346;2023-06-14T10:17:34;26.70;91.30
25410;DHT22;13339;50.840;4.346;2023-06-14T10:20:30;27.00;90.80
25410;DHT22;13339;50.840;4.346;2023-06-14T10:23:06;27.30;90.00
25410;DHT22;13339;50.840;4.346;2023-06-14T10:25:34;27.20;90.60
25410;DHT22;13339;50.840;4.346;2023-06-14T10:28:14;27.00;90.30
25410;DHT22;13339;50.840;4.346;2023-06-14T10:31:04;27.00;89.90
25410;DHT22;13339;50.840;4.346;2023-06-14T10:33:30;27.20;89.00
25410;DHT22;13339;50.840;4.346;2023-06-14T10:39:18;27.40;90.10
25410;DHT22;13339;50.840;4.346;2023-06-14T10:41:53;27.30;89.30
25410;DHT22;13339;50.840;4.346;2023-06-14T10:46:52;27.40;88.70
25410;DHT22;13339;50.840;4.346;2023-06-14T10:49:19;27.40;89.00
25410;DHT22;13339;50.840;4.346;2023-06-14T10:51:48;27.40;89.00
25410;DHT22;13339;50.840;4.346;2023-06-14T10:54:15;27.40;88.20
25410;DHT22;13339;50.840;4.346;2023-06-14T10:59:14;27.30;88.40
25410;DHT22;13339;50.840;4.346;2023-06-14T11:04:17;27.30;88.30
25410;DHT22;13339;50.840;4.346;2023-06-14T11:06:47;27.40;88.30
25410;DHT22;13339;50.840;4.346;2023-06-14T11:12:10;27.30;88.40
25410;DHT22;13339;50.840;4.346;2023-06-14T11:14:36;27.60;88.40
25410;DHT22;13339;50.840;4.346;2023-06-14T11:17:02;27.90;88.00
25410;DHT22;13339;50.840;4.346;2023-06-14T11:19:28;27.90;86.50
25410;DHT22;13339;50.840;4.346;2023-06-14T11:21:54;28.00;86.50
25410;DHT22;13339;50.840;4.346;2023-06-14T11:24:20;28.20;86.70
25410;DHT22;13339;50.840;4.346;2023-06-14T11:26:47;28.30;85.80
25410;DHT22;13339;50.840;4.346;2023-06-14T11:29:14;28.10;86.20
25410;DHT22;13339;50.840;4.346;2023-06-14T11:31:44;28.10;86.30
25410;DHT22;13339;50.840;4.346;2023-06-14T11:34:12;28.10;86.20
25410;DHT22;13339;50.840;4.346;2023-06-14T11:36:38;28.00;86.40
25410;DHT22;13339;50.840;4.346;2023-06-14T11:39:06;28.00;86.60
25410;DHT22;13339;50.840;4.346;2023-06-14T11:41:43;28.00;86.30
25410;DHT22;13339;50.840;4.346;2023-06-14T11:44:09;27.90;85.30
25410;DHT22;13339;50.840;4.346;2023-06-14T11:46:35;28.00;86.30
25410;DHT22;13339;50.840;4.346;2023-06-14T11:49:02;28.20;85.70
25410;DHT22;13339;50.840;4.346;2023-06-14T11:51:33;28.50;85.60
25410;DHT22;13339;50.840;4.346;2023-06-14T11:54:00;28.70;85.20
25410;DHT22;13339;50.840;4.346;2023-06-14T11:56:26;28.80;84.70
25410;DHT22;13339;50.840;4.346;2023-06-14T11:58:52;28.70;83.90
25410;DHT22;13339;50.840;4.346;2023-06-14T12:01:22;28.80;84.40
25410;DHT22;13339;50.840;4.346;2023-06-14T12:03:52;28.70;85.10
25410;DHT22;13339;50.840;4.346;2023-06-14T12:06:26;28.50;84.80
25410;DHT22;13339;50.840;4.346;2023-06-14T12:08:56;28.30;84.80
25410;DHT22;13339;50.840;4.346;2023-06-14T12:11:21;28.10;85.40
25410;DHT22;13339;50.840;4.346;2023-06-14T12:13:49;28.30;84.30
25410;DHT22;13339;50.840;4.346;2023-06-14T12:16:14;28.30;84.80
25410;DHT22;13339;50.840;4.346;2023-06-14T12:18:41;28.50;83.50
25410;DHT22;13339;50.840;4.346;2023-06-14T12:21:09;28.30;82.90
25410;DHT22;13339;50.840;4.346;2023-06-14T12:23:49;28.10;82.60
25410;DHT22;13339;50.840;4.346;2023-06-14T12:26:18;28.10;83.70
25410;DHT22;13339;50.840;4.346;2023-06-14T12:28:45;28.30;82.80
25410;DHT22;13339;50.840;4.346;2023-06-14T12:31:11;28.40;82.40
25410;DHT22;13339;50.840;4.346;2023-06-14T12:33:38;28.60;83.00
25410;DHT22;13339;50.840;4.346;2023-06-14T12:36:08;28.80;81.10
25410;DHT22;13339;50.840;4.346;2023-06-14T12:38:34;28.70;81.00
25410;DHT22;13339;50.840;4.346;2023-06-14T12:41:00;28.30;79.70
25410;DHT22;13339;50.840;4.346;2023-06-14T12:43:26;28.20;82.50
25410;DHT22;13339;50.840;4.346;2023-06-14T12:45:51;28.40;83.90
25410;DHT22;13339;50.840;4.346;2023-06-14T12:48:17;28.60;82.20
25410;DHT22;13339;50.840;4.346;2023-06-14T12:50:43;28.60;81.30
25410;DHT22;13339;50.840;4.346;2023-06-14T12:53:08;28.70;81.60
25410;DHT22;13339;50.840;4.346;2023-06-14T12:55:34;28.40;80.90
25410;DHT22;13339;50.840;4.346;2023-06-14T12:58:00;28.40;81.20
25410;DHT22;13339;50.840;4.346;2023-06-14T13:00:25;28.30;81.50
25410;DHT22;13339;50.840;4.346;2023-06-14T13:02:51;28.30;81.00
25410;DHT22;13339;50.840;4.346;2023-06-14T13:05:17;28.40;81.20
25410;DHT22;13339;50.840;4.346;2023-06-14T13:07:43;28.40;81.10
25410;DHT22;13339;50.840;4.346;2023-06-14T13:10:10;28.20;81.50
25410;DHT22;13339;50.840;4.346;2023-06-14T13:12:36;28.00;82.10
25410;DHT22;13339;50.840;4.346;2023-06-14T13:15:02;27.70;82.30
25410;DHT22;13339;50.840;4.346;2023-06-14T13:17:27;27.90;82.60
25410;DHT22;13339;50.840;4.346;2023-06-14T13:19:53;28.10;81.70
25410;DHT22;13339;50.840;4.346;2023-06-14T13:22:19;27.80;81.90
25410;DHT22;13339;50.840;4.346;2023-06-14T13:24:45;27.90;82.10
25410;DHT22;13339;50.840;4.346;2023-06-14T13:27:10;28.00;82.00
25410;DHT22;13339;50.840;4.346;2023-06-14T13:29:36;28.00;81.90
25410;DHT22;13339;50.840;4.346;2023-06-14T13:32:03;28.30;82.10
25410;DHT22;13339;50.840;4.346;2023-06-14T13:34:29;28.40;82.40
25410;DHT22;13339;50.840;4.346;2023-06-14T13:36:54;28.30;82.20
25410;DHT22;13339;50.840;4.346;2023-06-14T13:39:20;28.30;82.30
25410;DHT22;13339;50.840;4.346;2023-06-14T13:41:46;28.40;81.60
25410;DHT22;13339;50.840;4.346;2023-06-14T13:44:12;28.30;81.60
25410;DHT22;13339;50.840;4.346;2023-06-14T13:46:39;28.50;81.60
25410;DHT22;13339;50.840;4.346;2023-06-14T13:49:05;28.50;79.90
25410;DHT22;13339;50.840;4.346;2023-06-14T13:51:31;28.20;79.70
25410;DHT22;13339;50.840;4.346;2023-06-14T13:53:57;28.20;79.00
25410;DHT22;13339;50.840;4.346;2023-06-14T13:56:23;28.50;78.90
25410;DHT22;13339;50.840;4.346;2023-06-14T13:58:50;28.30;78.90
25410;DHT22;13339;50.840;4.346;2023-06-14T14:01:16;28.40;78.40
25410;DHT22;13339;50.840;4.346;2023-06-14T14:03:43;28.30;78.70
25410;DHT22;13339;50.840;4.346;2023-06-14T14:06:10;28.10;79.10
25410;DHT22;13339;50.840;4.346;2023-06-14T14:08:36;27.80;79.20
25410;DHT22;13339;50.840;4.346;2023-06-14T14:11:02;28.00;79.30
25410;DHT22;13339;50.840;4.346;2023-06-14T14:13:27;28.30;77.80
25410;DHT22;13339;50.840;4.346;2023-06-14T14:15:53;28.70;77.90
25410;DHT22;13339;50.840;4.346;2023-06-14T14:18:19;28.70;77.80
25410;DHT22;13339;50.840;4.346;2023-06-14T14:20:48;28.90;78.20
25410;DHT22;13339;50.840;4.346;2023-06-14T14:23:14;29.00;77.70
25410;DHT22;13339;50.840;4.346;2023-06-14T14:25:40;28.90;77.20
25410;DHT22;13339;50.840;4.346;2023-06-14T14:28:05;28.80;77.80
25410;DHT22;13339;50.840;4.346;2023-06-14T14:30:31;28.90;77.30
25410;DHT22;13339;50.840;4.346;2023-06-14T14:32:57;28.90;77.10
25410;DHT22;13339;50.840;4.346;2023-06-14T14:35:22;28.80;76.60
25410;DHT22;13339;50.840;4.346;2023-06-14T14:37:49;28.70;76.30
25410;DHT22;13339;50.840;4.346;2023-06-14T14:40:15;28.90;76.90
25410;DHT22;13339;50.840;4.346;2023-06-14T14:42:41;29.00;76.40
25410;DHT22;13339;50.840;4.346;2023-06-14T14:45:07;29.20;75.80
25410;DHT22;13339;50.840;4.346;2023-06-14T14:47:32;29.00;76.00
25410;DHT22;13339;50.840;4.346;2023-06-14T14:49:58;29.00;76.50
25410;DHT22;13339;50.840;4.346;2023-06-14T14:52:23;28.90;75.60
25410;DHT22;13339;50.840;4.346;2023-06-14T14:54:50;28.90;76.40
25410;DHT22;13339;50.840;4.346;2023-06-14T14:57:16;29.10;75.70
25410;DHT22;13339;50.840;4.346;2023-06-14T14:59:41;29.00;75.90
25410;DHT22;13339;50.840;4.346;2023-06-14T15:02:07;28.90;75.60
25410;DHT22;13339;50.840;4.346;2023-06-14T15:04:32;28.90;75.60
25410;DHT22;13339;50.840;4.346;2023-06-14T15:06:58;28.90;75.50
25410;DHT22;13339;50.840;4.346;2023-06-14T15:09:23;28.80;75.10
25410;DHT22;13339;50.840;4.346;2023-06-14T15:11:49;28.80;75.00
25410;DHT22;13339;50.840;4.346;2023-06-14T15:14:15;28.70;75.00
25410;DHT22;13339;50.840;4.346;2023-06-14T15:16:41;28.40;75.80
25410;DHT22;13339;50.840;4.346;2023-06-14T15:19:07;28.50;75.80
25410;DHT22;13339;50.840;4.346;2023-06-14T15:21:32;28.70;75.50
25410;DHT22;13339;50.840;4.346;2023-06-14T15:23:58;28.50;75.50
25410;DHT22;13339;50.840;4.346;2023-06-14T15:26:24;28.60;75.90
25410;DHT22;13339;50.840;4.346;2023-06-14T15:28:50;28.40;75.50
25410;DHT22;13339;50.840;4.346;2023-06-14T15:31:15;28.40;75.40
25410;DHT22;13339;50.840;4.346;2023-06-14T15:33:41;28.40;77.10
25410;DHT22;13339;50.840;4.346;2023-06-14T15:36:07;28.30;76.80
25410;DHT22;13339;50.840;4.346;2023-06-14T15:38:35;28.50;76.20
25410;DHT22;13339;50.840;4.346;2023-06-14T15:41:01;28.60;76.00
25410;DHT22;13339;50.840;4.346;2023-06-14T15:43:26;28.50;76.70
25410;DHT22;13339;50.840;4.346;2023-06-14T15:45:52;28.50;77.40